createdAt,value
2022-12-31T00:01:41.172Z,99925.53
2022-12-31T00:05:52.884Z,99925.06
2022-12-31T00:10:04.829Z,99935.34
2022-12-31T00:14:16.490Z,99932.53
2022-12-31T00:18:28.096Z,99938.19
2022-12-31T00:22:39.723Z,99932.53
2022-12-31T00:26:51.302Z,99949.50
2022-12-31T00:31:19.383Z,99951.34
2022-12-31T00:35:31.095Z,99939.69
2022-12-31T00:39:42.718Z,99940.75
2022-12-31T00:43:54.973Z,99958.81
2022-12-31T00:48:06.608Z,99963.13
2022-12-31T00:52:18.331Z,99965.56
2022-12-31T00:56:31.373Z,99952.03
2022-12-31T01:00:43.405Z,99956.03
2022-12-31T01:04:55.061Z,99964.88
2022-12-31T01:09:07.474Z,99966.75
2022-12-31T01:13:20.365Z,99950.50
2022-12-31T01:17:32.020Z,99969.44
2022-12-31T01:21:45.177Z,99968.31
2022-12-31T01:26:00.699Z,99963.16
2022-12-31T01:30:12.679Z,99958.09
2022-12-31T01:34:24.419Z,99938.06
2022-12-31T01:38:37.034Z,99953.78
2022-12-31T01:42:58.773Z,99935.09
2022-12-31T01:47:16.057Z,99944.75
2022-12-31T01:51:31.228Z,99953.66
2022-12-31T01:55:48.721Z,99977.69
2022-12-31T02:00:01.800Z,99967.75
2022-12-31T02:04:16.615Z,99962.28
2022-12-31T02:08:28.543Z,99997.94
2022-12-31T02:12:40.437Z,99996.25
2022-12-31T02:17:04.171Z,99994.53
2022-12-31T02:21:42.930Z,100015.66
2022-12-31T02:26:22.551Z,99983.28
2022-12-31T02:30:36.397Z,99958.47
2022-12-31T02:34:54.437Z,99950.94
2022-12-31T02:39:09.236Z,99953.66
2022-12-31T02:43:20.906Z,99950.13
2022-12-31T02:47:54.679Z,99941.00
2022-12-31T02:52:29.353Z,99959.66
2022-12-31T02:57:23.660Z,99943.13
2022-12-31T03:01:58.789Z,99956.84
2022-12-31T03:06:12.151Z,99957.13
2022-12-31T03:10:23.849Z,99971.91
2022-12-31T03:14:35.578Z,99975.69
2022-12-31T03:19:05.726Z,99964.88
2022-12-31T03:23:24.143Z,99974.59
2022-12-31T03:27:35.776Z,99973.16
2022-12-31T03:31:47.479Z,99977.72
2022-12-31T03:35:59.269Z,99968.84
2022-12-31T03:40:13.480Z,99980.09
2022-12-31T03:44:25.056Z,99986.88
2022-12-31T03:48:36.686Z,99968.78
2022-12-31T03:52:49.918Z,99974.22
2022-12-31T03:57:01.514Z,99973.91
2022-12-31T04:01:13.352Z,99987.88
2022-12-31T04:05:25.302Z,99989.06
2022-12-31T04:09:37.135Z,99990.13
2022-12-31T04:13:48.740Z,99978.53
2022-12-31T04:18:00.393Z,99979.84
2022-12-31T04:22:12.070Z,99960.44
2022-12-31T04:26:23.775Z,99964.00
2022-12-31T04:30:35.549Z,99975.59
2022-12-31T04:34:47.106Z,99984.31
2022-12-31T04:38:58.746Z,99961.38
2022-12-31T04:43:10.412Z,99951.94
2022-12-31T04:47:24.023Z,99951.44
2022-12-31T04:51:38.490Z,99944.41
2022-12-31T04:55:50.469Z,99953.31
2022-12-31T05:00:02.027Z,99960.34
2022-12-31T05:04:13.702Z,99943.09
2022-12-31T05:08:25.383Z,99944.19
2022-12-31T05:12:37.014Z,99959.53
2022-12-31T05:16:49.075Z,99956.59
2022-12-31T05:21:00.982Z,99954.72
2022-12-31T05:25:12.631Z,99974.44
2022-12-31T05:29:24.312Z,99959.00
2022-12-31T05:33:36.038Z,99978.13
2022-12-31T05:37:47.669Z,99968.19
2022-12-31T05:41:59.291Z,99975.19
2022-12-31T05:46:11.019Z,99969.31
2022-12-31T05:50:22.734Z,99963.59
2022-12-31T05:54:40.337Z,99980.66
2022-12-31T05:58:52.044Z,99972.56
2022-12-31T06:03:03.796Z,99985.31
2022-12-31T06:07:15.666Z,99976.88
2022-12-31T06:11:27.307Z,99984.97
2022-12-31T06:15:40.062Z,99983.66
2022-12-31T06:19:51.722Z,100000.94
2022-12-31T06:24:03.414Z,99989.88
2022-12-31T06:28:20.019Z,100002.59
2022-12-31T06:32:32.449Z,99993.13
2022-12-31T06:36:44.155Z,99999.91
2022-12-31T06:40:56.034Z,99999.16
2022-12-31T06:45:08.104Z,100003.22
2022-12-31T06:49:19.740Z,99998.91
2022-12-31T06:53:31.724Z,100013.00
2022-12-31T06:57:44.463Z,100016.88
2022-12-31T07:02:03.289Z,100018.03
2022-12-31T07:06:44.174Z,100016.25
2022-12-31T07:11:05.953Z,99987.75
2022-12-31T07:15:40.774Z,100006.72
2022-12-31T07:20:28.465Z,100008.69
2022-12-31T07:24:40.418Z,99994.84
2022-12-31T07:29:11.977Z,99996.28
2022-12-31T07:33:26.800Z,100002.47
2022-12-31T07:37:47.599Z,100010.00
2022-12-31T07:41:59.133Z,100020.84
2022-12-31T07:46:25.521Z,100011.34
2022-12-31T07:50:37.349Z,100035.72
2022-12-31T07:54:49.080Z,99998.47
2022-12-31T07:59:31.289Z,100032.25
2022-12-31T08:04:09.218Z,100031.44
2022-12-31T08:08:32.016Z,100051.44
2022-12-31T08:12:45.612Z,100072.25
2022-12-31T08:16:57.643Z,100063.09
2022-12-31T08:21:28.198Z,100041.41
2022-12-31T08:26:15.777Z,100055.97
2022-12-31T08:30:50.331Z,100066.44
2022-12-31T08:35:39.499Z,100076.16
2022-12-31T08:40:18.134Z,100092.88
2022-12-31T08:44:44.433Z,100085.53
2022-12-31T08:48:56.414Z,100110.00
2022-12-31T08:53:08.326Z,100116.47
2022-12-31T08:57:19.911Z,100131.03
2022-12-31T09:02:24.039Z,100149.69
2022-12-31T09:06:46.215Z,100150.78
2022-12-31T09:11:22.634Z,100163.50
2022-12-31T09:16:01.961Z,100163.00
2022-12-31T09:20:44.463Z,100173.31
2022-12-31T09:24:56.591Z,100190.63
2022-12-31T09:29:33.127Z,100202.28
2022-12-31T09:33:54.485Z,100210.94
2022-12-31T09:38:30.875Z,100193.69
2022-12-31T09:42:54.704Z,100208.31
2022-12-31T09:47:53.963Z,100210.81
2022-12-31T09:52:39.545Z,100216.03
2022-12-31T09:57:28.988Z,100203.44
2022-12-31T10:02:00.758Z,100208.41
2022-12-31T10:06:23.505Z,100199.81
2022-12-31T10:10:49.644Z,100215.56
2022-12-31T10:15:34.753Z,100206.94
2022-12-31T10:20:07.700Z,100222.94
2022-12-31T10:24:37.608Z,100213.63
2022-12-31T10:28:54.219Z,100208.00
2022-12-31T10:33:16.595Z,100215.06
2022-12-31T10:37:32.862Z,100202.69
2022-12-31T10:42:09.808Z,100205.69
2022-12-31T10:46:46.579Z,100220.84
2022-12-31T10:51:10.432Z,100207.84
2022-12-31T10:55:59.675Z,100212.47
2022-12-31T11:00:18.491Z,100214.13
2022-12-31T11:04:56.726Z,100207.38
2022-12-31T11:09:45.439Z,100215.75
2022-12-31T11:14:21.638Z,100199.50
2022-12-31T11:18:39.190Z,100203.00
2022-12-31T11:23:24.740Z,100201.69
2022-12-31T11:28:03.312Z,100184.88
2022-12-31T11:32:27.023Z,100180.88
2022-12-31T11:36:51.733Z,100195.75
2022-12-31T11:41:14.817Z,100203.63
2022-12-31T11:46:01.899Z,100201.44
2022-12-31T11:50:13.551Z,100228.81
2022-12-31T11:55:02.752Z,100210.16
2022-12-31T11:59:19.313Z,100208.28
2022-12-31T12:03:32.731Z,100212.06
2022-12-31T12:07:44.842Z,100215.56
2022-12-31T12:12:03.604Z,100215.81
2022-12-31T12:16:16.056Z,100220.75
2022-12-31T12:20:35.452Z,100224.59
2022-12-31T12:24:56.214Z,100224.03
2022-12-31T12:29:28.729Z,100226.44
2022-12-31T12:33:46.511Z,100222.34
2022-12-31T12:38:07.326Z,100221.53
2022-12-31T12:48:34.377Z,100222.84
2022-12-31T12:52:59.933Z,100223.38
2022-12-31T12:57:29.449Z,100222.56
2022-12-31T13:01:56.369Z,100226.91
2022-12-31T13:06:27.783Z,100216.06
2022-12-31T13:11:01.059Z,100236.91
2022-12-31T13:15:21.846Z,100242.56
2022-12-31T13:19:52.998Z,100237.44
2022-12-31T13:24:16.648Z,100238.50
2022-12-31T13:28:30.512Z,100242.31
2022-12-31T13:32:51.288Z,100241.75
2022-12-31T13:37:06.848Z,100239.59
2022-12-31T13:41:32.704Z,100232.84
2022-12-31T13:45:47.341Z,100258.25
2022-12-31T13:50:15.169Z,100241.47
2022-12-31T13:54:32.063Z,100247.69
2022-12-31T13:58:49.970Z,100248.47
2022-12-31T14:03:04.553Z,100258.22
2022-12-31T14:07:41.882Z,100258.22
2022-12-31T14:12:30.023Z,100255.53
2022-12-31T14:17:12.578Z,100246.59
2022-12-31T14:21:33.557Z,100261.19
2022-12-31T14:25:55.260Z,100233.31
2022-12-31T14:30:16.477Z,100230.09
2022-12-31T14:34:55.500Z,100246.38
2022-12-31T14:39:22.340Z,100227.94
2022-12-31T14:43:57.366Z,100255.31
2022-12-31T14:48:33.148Z,100265.59
2022-12-31T14:53:19.023Z,100271.28
2022-12-31T14:58:01.665Z,100271.81
2022-12-31T15:02:29.037Z,100277.22
2022-12-31T15:07:16.643Z,100278.56
2022-12-31T15:11:37.735Z,100277.47
2022-12-31T15:15:52.292Z,100290.50
2022-12-31T15:20:47.902Z,100294.00
2022-12-31T15:25:00.993Z,100278.00
2022-12-31T15:29:30.909Z,100278.84
2022-12-31T15:34:06.599Z,100291.81
2022-12-31T15:38:30.094Z,100284.53
2022-12-31T15:42:50.100Z,100279.41
2022-12-31T15:47:17.983Z,100279.13
2022-12-31T15:51:42.613Z,100284.03
2022-12-31T15:55:57.775Z,100267.75
2022-12-31T16:00:20.398Z,100270.50
2022-12-31T16:04:39.382Z,100268.88
2022-12-31T16:08:51.336Z,100272.13
2022-12-31T16:13:03.027Z,100281.06
2022-12-31T16:17:31.688Z,100295.13
2022-12-31T16:21:46.347Z,100281.31
2022-12-31T16:26:01.631Z,100263.19
2022-12-31T16:30:22.933Z,100265.38
2022-12-31T16:34:38.477Z,100269.41
2022-12-31T16:38:50.148Z,100264.00
2022-12-31T16:43:01.926Z,100255.56
2022-12-31T16:47:24.541Z,100270.22
2022-12-31T16:51:37.851Z,100258.03
2022-12-31T16:56:04.762Z,100266.16
2022-12-31T17:00:18.920Z,100259.34
2022-12-31T17:04:30.808Z,100257.22
2022-12-31T17:15:07.517Z,100247.66
2022-12-31T17:19:46.039Z,100262.03
2022-12-31T17:24:04.863Z,100238.97
2022-12-31T17:28:23.257Z,100235.19
2022-12-31T17:32:38.269Z,100224.06
2022-12-31T17:36:58.478Z,100240.53
2022-12-31T17:41:30.510Z,100241.91
2022-12-31T17:45:44.748Z,100244.63
2022-12-31T17:49:56.543Z,100253.53
2022-12-31T17:54:15.677Z,100256.81
2022-12-31T17:58:31.808Z,100236.16
2022-12-31T18:02:43.974Z,100239.41
2022-12-31T18:06:55.879Z,100232.63
2022-12-31T18:11:12.238Z,100268.09
2022-12-31T18:15:25.002Z,100249.97
2022-12-31T18:20:03.538Z,100264.06
2022-12-31T18:24:14.046Z,100264.66
2022-12-31T18:28:25.789Z,100260.63
2022-12-31T18:32:38.870Z,100252.50
2022-12-31T18:36:50.847Z,100241.69
2022-12-31T18:41:02.661Z,100249.56
2022-12-31T18:45:17.953Z,100237.88
2022-12-31T18:49:29.606Z,100255.19
2022-12-31T18:53:41.685Z,100255.75
2022-12-31T18:57:53.500Z,100257.31
2022-12-31T19:02:11.729Z,100251.34
2022-12-31T19:06:24.119Z,100252.91
2022-12-31T19:10:36.001Z,100247.00
2022-12-31T19:15:04.311Z,100244.81
2022-12-31T19:29:48.626Z,100297.38
2022-12-31T19:34:03.396Z,100273.53
2022-12-31T19:38:19.907Z,100280.31
2022-12-31T19:42:31.606Z,100265.69
2022-12-31T19:46:43.886Z,100282.22
2022-12-31T19:50:55.645Z,100262.41
2022-12-31T19:55:07.862Z,100259.63
2022-12-31T19:59:19.581Z,100294.28
2022-12-31T20:03:32.912Z,100291.78
2022-12-31T20:07:44.692Z,100307.75
2022-12-31T20:11:56.392Z,100294.50
2022-12-31T20:16:10.027Z,100290.06
2022-12-31T20:20:21.835Z,100284.66
2022-12-31T20:24:33.542Z,100299.28
2022-12-31T20:28:45.346Z,100297.41
2022-12-31T20:32:57.039Z,100303.59
2022-12-31T20:37:08.713Z,100301.75
2022-12-31T20:41:22.400Z,100311.22
2022-12-31T20:45:34.073Z,100302.88
2022-12-31T20:50:10.504Z,100289.06
2022-12-31T20:54:18.314Z,100297.41
2022-12-31T20:58:29.888Z,100318.53
2022-12-31T21:02:43.278Z,100293.59
2022-12-31T21:06:55.946Z,100312.09
2022-12-31T21:11:28.075Z,100288.22
2022-12-31T21:15:39.780Z,100305.25
2022-12-31T21:19:51.633Z,100306.91
2022-12-31T21:24:03.811Z,100311.75
2022-12-31T21:28:15.599Z,100319.59
2022-12-31T21:32:27.366Z,100319.28
2022-12-31T21:36:39.057Z,100334.50
2022-12-31T21:40:50.803Z,100333.66
2022-12-31T21:45:02.466Z,100350.28
2022-12-31T21:49:14.108Z,100301.56
2022-12-31T21:53:32.085Z,100344.69
2022-12-31T21:58:24.069Z,100374.25
2022-12-31T22:02:39.598Z,100350.44
2022-12-31T22:06:52.105Z,100357.47
2022-12-31T22:11:03.797Z,100370.81
2022-12-31T22:15:16.450Z,100368.88
2022-12-31T22:19:28.154Z,100381.94
2022-12-31T22:23:40.529Z,100375.97
2022-12-31T22:28:27.628Z,100381.63
2022-12-31T22:32:24.102Z,100382.22
2022-12-31T22:36:35.892Z,100385.16
2022-12-31T22:40:47.547Z,100388.72
2022-12-31T22:44:59.202Z,100381.38
2022-12-31T22:49:11.264Z,100368.88
2022-12-31T22:53:23.071Z,100398.78
2022-12-31T22:57:34.821Z,100386.53
2022-12-31T23:01:46.737Z,100401.47
2022-12-31T23:05:58.559Z,100401.19
2022-12-31T23:10:29.950Z,100386.53
2022-12-31T23:15:00.053Z,100426.38
2022-12-31T23:19:31.358Z,100421.53
2022-12-31T23:23:43.023Z,100425.56
2022-12-31T23:27:54.715Z,100422.06
2022-12-31T23:32:07.391Z,100432.34
2022-12-31T23:36:19.162Z,100426.69
2022-12-31T23:40:34.537Z,100407.50
2022-12-31T23:44:46.364Z,100412.06
2022-12-31T23:48:58.091Z,100428.91
2022-12-31T23:53:10.114Z,100415.94
2022-12-31T23:57:22.794Z,100416.72
